createdAt,value
2019-05-18T00:00:38.692Z,99652.55
2019-05-18T00:03:08.158Z,99659.46
2019-05-18T00:05:37.627Z,99641.97
2019-05-18T00:08:07.190Z,99646.75
2019-05-18T00:10:36.747Z,99641.88
2019-05-18T00:13:06.288Z,99646.02
2019-05-18T00:15:35.921Z,99642.30
2019-05-18T00:18:05.602Z,99635.39
2019-05-18T00:20:35.230Z,99636.77
2019-05-18T00:23:04.825Z,99640.92
2019-05-18T00:25:35.868Z,99641.27
2019-05-18T00:28:05.437Z,99637.52
2019-05-18T00:30:34.985Z,99630.53
2019-05-18T00:33:23.846Z,99625.74
2019-05-18T00:35:53.325Z,99627.86
2019-05-18T00:38:22.772Z,99623.64
2019-05-18T00:40:52.337Z,99625.54
2019-05-18T00:43:21.856Z,99621.10
2019-05-18T00:46:10.784Z,99617.48
2019-05-18T00:48:40.359Z,99614.42
2019-05-18T00:51:09.917Z,99612.53
2019-05-18T00:53:39.580Z,99617.58
2019-05-18T00:56:09.008Z,99619.03
2019-05-18T00:58:38.504Z,99621.88
2019-05-18T01:01:08.044Z,99627.27
2019-05-18T01:03:37.536Z,99625.28
2019-05-18T01:06:07.012Z,99622.38
2019-05-18T01:08:36.500Z,99624.56
2019-05-18T01:11:06.003Z,99627.75
2019-05-18T01:13:35.622Z,99631.39
2019-05-18T01:16:05.342Z,99628.48
2019-05-18T01:18:34.833Z,99626.36
2019-05-18T01:21:04.318Z,99628.61
2019-05-18T01:23:33.831Z,99624.30
2019-05-18T01:26:03.447Z,99627.33
2019-05-18T01:28:32.920Z,99623.26
2019-05-18T01:31:02.419Z,99621.72
2019-05-18T01:33:31.943Z,99618.81
2019-05-18T01:36:01.513Z,99620.55
2019-05-18T01:38:31.023Z,99614.54
2019-05-18T01:41:00.545Z,99614.81
2019-05-18T01:43:30.037Z,99610.52
2019-05-18T01:45:59.502Z,99616.05
2019-05-18T01:48:28.977Z,99613.12
2019-05-18T01:50:58.446Z,99610.08
2019-05-18T01:53:27.922Z,99613.66
2019-05-18T01:55:57.385Z,99605.67
2019-05-18T01:58:26.877Z,99602.81
2019-05-18T02:00:56.334Z,99600.92
2019-05-18T02:03:26.099Z,99603.00
2019-05-18T02:05:55.674Z,99613.91
2019-05-18T02:08:25.162Z,99618.53
2019-05-18T02:10:54.671Z,99618.90
2019-05-18T02:13:24.199Z,99610.53
2019-05-18T02:15:53.705Z,99610.91
2019-05-18T02:18:29.221Z,99625.82
2019-05-18T02:20:54.394Z,99618.13
2019-05-18T02:23:23.873Z,99622.25
2019-05-18T02:25:53.405Z,99625.60
2019-05-18T02:28:22.899Z,99628.20
2019-05-18T02:30:52.373Z,99625.12
2019-05-18T02:33:21.863Z,99628.09
2019-05-18T02:35:51.403Z,99615.55
2019-05-18T02:38:20.917Z,99624.86
2019-05-18T02:40:50.512Z,99620.02
2019-05-18T02:43:20.089Z,99613.13
2019-05-18T02:45:49.584Z,99620.23
2019-05-18T02:48:19.082Z,99614.95
2019-05-18T02:50:48.586Z,99614.02
2019-05-18T02:53:18.220Z,99613.20
2019-05-18T02:55:47.772Z,99606.55
2019-05-18T02:58:17.238Z,99609.67
2019-05-18T03:00:47.446Z,99612.05
2019-05-18T03:03:17.014Z,99611.61
2019-05-18T03:05:46.541Z,99603.72
2019-05-18T03:08:16.145Z,99607.63
2019-05-18T03:10:45.699Z,99610.38
2019-05-18T03:13:15.170Z,99610.16
2019-05-18T03:15:44.745Z,99609.71
2019-05-18T03:18:14.385Z,99606.52
2019-05-18T03:20:44.212Z,99606.52
2019-05-18T03:23:13.671Z,99603.53
2019-05-18T03:25:43.529Z,99607.08
2019-05-18T03:28:13.421Z,99600.78
2019-05-18T03:30:42.900Z,99598.25
2019-05-18T03:33:12.381Z,99591.38
2019-05-18T03:35:41.860Z,99597.32
2019-05-18T03:38:11.489Z,99595.02
2019-05-18T03:40:40.980Z,99589.73
2019-05-18T03:43:10.441Z,99590.73
2019-05-18T03:45:39.992Z,99584.89
2019-05-18T03:48:09.456Z,99592.06
2019-05-18T03:50:38.913Z,99583.91
2019-05-18T03:53:08.402Z,99580.66
2019-05-18T03:55:37.902Z,99593.94
2019-05-18T03:58:07.364Z,99587.16
2019-05-18T04:00:36.902Z,99597.09
2019-05-18T04:03:06.374Z,99592.61
2019-05-18T04:05:35.836Z,99587.83
2019-05-18T04:08:05.327Z,99597.42
2019-05-18T04:10:34.866Z,99589.13
2019-05-18T04:13:04.357Z,99588.85
2019-05-18T04:15:33.992Z,99578.93
2019-05-18T04:18:03.450Z,99585.20
2019-05-18T04:20:32.936Z,99585.95
2019-05-18T04:23:02.430Z,99582.34
2019-05-18T04:25:31.895Z,99591.34
2019-05-18T04:28:01.368Z,99594.84
2019-05-18T04:30:30.824Z,99592.08
2019-05-18T04:33:00.455Z,99593.86
2019-05-18T04:35:29.909Z,99595.59
2019-05-18T04:37:59.380Z,99590.23
2019-05-18T04:40:28.874Z,99582.31
2019-05-18T04:42:58.413Z,99595.52
2019-05-18T04:45:27.903Z,99585.05
2019-05-18T04:47:57.350Z,99589.57
2019-05-18T04:50:26.835Z,99586.20
2019-05-18T04:52:56.360Z,99587.94
2019-05-18T04:55:25.854Z,99587.11
2019-05-18T04:57:55.343Z,99585.86
2019-05-18T05:00:24.789Z,99583.22
2019-05-18T05:02:54.279Z,99584.75
2019-05-18T05:05:23.735Z,99579.34
2019-05-18T05:07:53.253Z,99576.94
2019-05-18T05:10:22.746Z,99591.09
2019-05-18T05:12:52.209Z,99587.83
2019-05-18T05:15:21.729Z,99588.33
2019-05-18T05:17:51.180Z,99585.67
2019-05-18T05:20:20.739Z,99587.38
2019-05-18T05:22:50.251Z,99592.05
2019-05-18T05:25:39.090Z,99588.25
2019-05-18T05:28:08.548Z,99590.94
2019-05-18T05:30:38.110Z,99592.70
2019-05-18T05:33:07.576Z,99591.83
2019-05-18T05:35:37.849Z,99588.20
2019-05-18T05:38:07.521Z,99580.82
2019-05-18T05:40:37.006Z,99589.72
2019-05-18T05:43:06.484Z,99585.50
2019-05-18T05:45:35.939Z,99588.61
2019-05-18T05:48:05.502Z,99593.07
2019-05-18T05:50:36.575Z,99593.20
2019-05-18T05:53:06.314Z,99595.69
2019-05-18T05:55:35.802Z,99592.84
2019-05-18T05:58:05.262Z,99585.25
2019-05-18T06:00:34.770Z,99590.10
2019-05-18T06:03:04.222Z,99596.33
2019-05-18T06:05:33.730Z,99591.72
2019-05-18T06:08:03.197Z,99586.44
2019-05-18T06:10:32.762Z,99592.28
2019-05-18T06:13:02.221Z,99595.13
2019-05-18T06:15:31.756Z,99595.18
2019-05-18T06:18:01.238Z,99594.27
2019-05-18T06:20:30.723Z,99590.75
2019-05-18T06:23:00.190Z,99598.91
2019-05-18T06:25:34.090Z,99603.34
2019-05-18T06:28:00.975Z,99597.21
2019-05-18T06:30:30.456Z,99595.85
2019-05-18T06:32:59.946Z,99595.73
2019-05-18T06:35:30.999Z,99611.03
2019-05-18T06:38:00.413Z,99608.28
2019-05-18T06:40:29.875Z,99614.67
2019-05-18T06:42:59.375Z,99615.09
2019-05-18T06:45:28.989Z,99611.54
2019-05-18T06:47:58.490Z,99611.55
2019-05-18T06:50:31.831Z,99617.72
2019-05-18T06:53:01.405Z,99629.08
2019-05-18T06:55:32.552Z,99625.52
2019-05-18T06:58:02.726Z,99620.36
2019-05-18T07:00:32.230Z,99627.16
2019-05-18T07:03:01.728Z,99618.41
2019-05-18T07:05:31.173Z,99626.95
2019-05-18T07:08:00.683Z,99628.36
2019-05-18T07:10:30.123Z,99624.95
2019-05-18T07:12:59.562Z,99629.55
2019-05-18T07:15:29.083Z,99634.70
2019-05-18T07:17:58.542Z,99638.28
2019-05-18T07:20:28.092Z,99632.69
2019-05-18T07:22:57.578Z,99631.92
2019-05-18T07:25:27.034Z,99632.31
2019-05-18T07:27:56.531Z,99631.70
2019-05-18T07:30:25.982Z,99640.25
2019-05-18T07:32:55.473Z,99631.31
2019-05-18T07:35:25.024Z,99635.69
2019-05-18T07:37:54.534Z,99633.69
2019-05-18T07:40:24.060Z,99629.13
2019-05-18T07:42:53.511Z,99631.69
2019-05-18T07:45:23.095Z,99637.64
2019-05-18T07:47:52.584Z,99635.87
2019-05-18T07:50:22.221Z,99628.69
2019-05-18T07:52:51.750Z,99629.89
2019-05-18T07:55:21.195Z,99629.86
2019-05-18T07:57:50.693Z,99630.06
2019-05-18T08:00:20.134Z,99633.04
2019-05-18T08:02:49.632Z,99630.84
2019-05-18T08:05:19.250Z,99631.44
2019-05-18T08:07:48.762Z,99621.50
2019-05-18T08:10:22.926Z,99631.81
2019-05-18T08:12:52.429Z,99622.84
2019-05-18T08:15:22.009Z,99625.78
2019-05-18T08:17:51.469Z,99624.16
2019-05-18T08:20:20.999Z,99627.11
2019-05-18T08:22:50.433Z,99628.30
2019-05-18T08:25:19.992Z,99627.06
2019-05-18T08:27:49.431Z,99630.78
2019-05-18T08:30:18.950Z,99627.70
2019-05-18T08:32:48.438Z,99632.25
2019-05-18T08:35:17.912Z,99639.92
2019-05-18T08:37:47.358Z,99641.22
2019-05-18T08:40:17.557Z,99633.73
2019-05-18T08:42:47.008Z,99630.81
2019-05-18T08:45:17.010Z,99634.30
2019-05-18T08:47:46.476Z,99634.00
2019-05-18T08:50:16.215Z,99631.09
2019-05-18T08:52:45.719Z,99641.66
2019-05-18T08:55:16.431Z,99629.69
2019-05-18T08:57:45.885Z,99632.03
2019-05-18T09:00:16.896Z,99635.19
2019-05-18T09:02:46.341Z,99637.94
2019-05-18T09:05:16.271Z,99631.46
2019-05-18T09:07:46.373Z,99632.64
2019-05-18T09:10:16.224Z,99626.99
2019-05-18T09:12:45.757Z,99623.48
2019-05-18T09:15:16.025Z,99629.84
2019-05-18T09:17:45.504Z,99630.16
2019-05-18T09:20:15.199Z,99625.48
2019-05-18T09:22:44.693Z,99622.73
2019-05-18T09:25:16.125Z,99622.42
2019-05-18T09:27:45.633Z,99621.92
2019-05-18T09:30:15.592Z,99615.05
2019-05-18T09:32:45.108Z,99617.95
2019-05-18T09:35:15.082Z,99616.42
2019-05-18T09:37:44.615Z,99618.94
2019-05-18T09:40:14.679Z,99621.60
2019-05-18T09:42:44.175Z,99620.84
2019-05-18T09:45:14.428Z,99617.11
2019-05-18T09:47:44.005Z,99621.69
2019-05-18T09:50:13.708Z,99632.16
2019-05-18T09:52:45.221Z,99623.65
2019-05-18T09:55:15.267Z,99622.28
2019-05-18T09:57:44.891Z,99622.70
2019-05-18T10:00:16.352Z,99617.13
2019-05-18T10:02:45.863Z,99615.39
2019-05-18T10:05:15.471Z,99611.52
2019-05-18T10:07:45.039Z,99619.95
2019-05-18T10:10:15.752Z,99624.27
2019-05-18T10:12:45.309Z,99629.42
2019-05-18T10:15:16.035Z,99629.37
2019-05-18T10:18:04.921Z,99624.89
2019-05-18T10:20:34.593Z,99618.78
2019-05-18T10:23:11.900Z,99621.16
2019-05-18T10:25:35.351Z,99623.94
2019-05-18T10:28:04.940Z,99620.93
2019-05-18T10:30:34.533Z,99617.40
2019-05-18T10:33:04.248Z,99618.13
2019-05-18T10:35:33.814Z,99620.98
2019-05-18T10:38:03.443Z,99613.87
2019-05-18T10:40:33.006Z,99610.08
2019-05-18T10:43:02.642Z,99609.02
2019-05-18T10:45:32.133Z,99607.55
2019-05-18T10:48:01.714Z,99602.40
2019-05-18T10:50:31.290Z,99597.75
2019-05-18T10:53:00.793Z,99592.92
2019-05-18T10:55:31.691Z,99593.41
2019-05-18T10:58:01.257Z,99597.92
2019-05-18T11:00:31.071Z,99601.83
2019-05-18T11:03:00.594Z,99592.44
2019-05-18T11:05:30.056Z,99587.08
2019-05-18T11:07:59.622Z,99584.96
2019-05-18T11:10:29.230Z,99589.09
2019-05-18T11:12:58.751Z,99587.41
2019-05-18T11:15:28.350Z,99587.10
2019-05-18T11:17:57.835Z,99583.52
2019-05-18T11:20:27.387Z,99583.78
2019-05-18T11:22:56.874Z,99576.67
2019-05-18T11:25:26.373Z,99580.47
2019-05-18T11:27:55.850Z,99583.58
2019-05-18T11:30:25.696Z,99584.34
2019-05-18T11:32:55.234Z,99579.67
2019-05-18T11:35:25.159Z,99580.77
2019-05-18T11:37:54.675Z,99579.41
2019-05-18T11:40:24.284Z,99581.50
2019-05-18T11:42:53.824Z,99584.41
2019-05-18T11:45:23.770Z,99579.50
2019-05-18T11:47:53.261Z,99583.72
2019-05-18T11:50:23.145Z,99576.86
2019-05-18T11:52:52.637Z,99571.18
2019-05-18T11:55:22.550Z,99568.66
2019-05-18T11:57:52.055Z,99567.73
2019-05-18T12:00:24.967Z,99567.37
2019-05-18T12:02:54.611Z,99562.86
2019-05-18T12:05:24.138Z,99564.37
2019-05-18T12:07:53.707Z,99561.05
2019-05-18T12:10:23.309Z,99555.77
2019-05-18T12:12:52.936Z,99555.03
2019-05-18T12:15:23.017Z,99561.17
2019-05-18T12:17:52.527Z,99560.30
2019-05-18T12:20:24.010Z,99557.56
2019-05-18T12:22:53.498Z,99557.66
2019-05-18T12:25:23.131Z,99548.03
2019-05-18T12:27:52.668Z,99537.66
2019-05-18T12:30:22.528Z,99538.07
2019-05-18T12:32:52.011Z,99543.01
2019-05-18T12:35:21.643Z,99543.36
2019-05-18T12:37:51.138Z,99545.47
2019-05-18T12:40:23.306Z,99551.45
2019-05-18T12:42:52.795Z,99546.45
2019-05-18T12:45:22.592Z,99541.73
2019-05-18T12:47:52.078Z,99547.20
2019-05-18T12:50:23.778Z,99549.72
2019-05-18T12:52:53.442Z,99543.95
2019-05-18T12:55:23.833Z,99544.89
2019-05-18T12:57:53.545Z,99538.92
2019-05-18T13:00:23.460Z,99536.41
2019-05-18T13:02:53.048Z,99536.69
2019-05-18T13:05:22.746Z,99536.95
2019-05-18T13:07:52.268Z,99544.91
2019-05-18T13:10:22.516Z,99542.48
2019-05-18T13:12:51.994Z,99531.18
2019-05-18T13:15:22.082Z,99528.95
2019-05-18T13:17:51.573Z,99530.47
2019-05-18T13:20:21.586Z,99525.25
2019-05-18T13:22:51.145Z,99517.09
2019-05-18T13:25:20.780Z,99521.08
2019-05-18T13:27:50.342Z,99518.18
2019-05-18T13:30:20.196Z,99520.92
2019-05-18T13:32:49.774Z,99518.84
2019-05-18T13:35:20.277Z,99513.87
2019-05-18T13:37:49.952Z,99513.31
2019-05-18T13:40:19.761Z,99512.06
2019-05-18T13:42:49.341Z,99515.66
2019-05-18T13:45:19.609Z,99509.98
2019-05-18T13:47:49.129Z,99513.40
2019-05-18T13:50:19.133Z,99509.73
2019-05-18T13:52:48.613Z,99509.46
2019-05-18T13:55:18.371Z,99509.66
2019-05-18T13:57:47.838Z,99506.20
2019-05-18T14:00:17.922Z,99509.34
2019-05-18T14:02:47.488Z,99514.83
2019-05-18T14:05:17.994Z,99515.27
2019-05-18T14:07:47.553Z,99517.16
2019-05-18T14:10:17.446Z,99521.19
2019-05-18T14:12:47.127Z,99516.55
2019-05-18T14:15:16.878Z,99507.97
2019-05-18T14:17:46.450Z,99517.69
2019-05-18T14:20:16.645Z,99512.06
2019-05-18T14:22:46.187Z,99514.12
2019-05-18T14:25:19.632Z,99513.54
2019-05-18T14:27:47.203Z,99514.34
2019-05-18T14:30:17.123Z,99514.98
2019-05-18T14:32:46.615Z,99523.02
2019-05-18T14:35:17.422Z,99525.36
2019-05-18T14:37:46.939Z,99515.23
2019-05-18T14:40:16.884Z,99519.32
2019-05-18T14:42:46.362Z,99515.50
2019-05-18T14:45:16.339Z,99521.36
2019-05-18T14:47:45.988Z,99524.56
2019-05-18T14:50:16.626Z,99523.55
2019-05-18T14:52:46.592Z,99524.27
2019-05-18T14:55:16.412Z,99533.45
2019-05-18T14:57:45.909Z,99530.72
2019-05-18T15:00:15.694Z,99535.41
2019-05-18T15:02:45.300Z,99533.83
2019-05-18T15:05:15.119Z,99533.92
2019-05-18T15:07:44.610Z,99537.43
2019-05-18T15:10:16.232Z,99535.98
2019-05-18T15:12:45.797Z,99537.94
2019-05-18T15:15:15.949Z,99537.86
2019-05-18T15:17:45.597Z,99537.60
2019-05-18T15:20:16.668Z,99544.13
2019-05-18T15:22:46.250Z,99544.67
2019-05-18T15:25:16.139Z,99542.35
2019-05-18T15:27:45.657Z,99540.08
2019-05-18T15:30:15.649Z,99533.97
2019-05-18T15:32:45.185Z,99537.20
2019-05-18T15:37:43.973Z,99531.36
2019-05-18T15:40:14.119Z,99530.48
2019-05-18T15:42:43.624Z,99539.45
2019-05-18T15:45:13.571Z,99532.16
2019-05-18T15:47:43.204Z,99536.73
2019-05-18T15:50:13.963Z,99529.89
2019-05-18T15:52:43.536Z,99539.45
2019-05-18T15:55:13.484Z,99535.16
2019-05-18T15:57:42.947Z,99535.84
2019-05-18T16:00:13.370Z,99534.08
2019-05-18T16:02:42.912Z,99534.44
2019-05-18T16:05:13.718Z,99528.31
2019-05-18T16:07:43.342Z,99529.72
2019-05-18T16:10:14.818Z,99516.59
2019-05-18T16:12:44.358Z,99521.43
2019-05-18T16:15:14.433Z,99523.83
2019-05-18T16:17:44.084Z,99527.16
2019-05-18T16:20:14.192Z,99522.78
2019-05-18T16:22:44.507Z,99521.03
2019-05-18T16:25:15.156Z,99513.48
2019-05-18T16:27:44.762Z,99516.53
2019-05-18T16:30:15.195Z,99522.00
2019-05-18T16:32:44.755Z,99523.14
2019-05-18T16:35:16.231Z,99532.94
2019-05-18T16:37:45.790Z,99525.83
2019-05-18T16:40:16.582Z,99527.70
2019-05-18T16:42:47.767Z,99519.99
2019-05-18T16:45:17.693Z,99524.00
2019-05-18T16:47:47.345Z,99529.06
2019-05-18T16:50:18.563Z,99519.43
2019-05-18T16:52:48.065Z,99516.61
2019-05-18T16:55:18.226Z,99508.75
2019-05-18T16:57:47.757Z,99510.45
2019-05-18T17:00:18.185Z,99512.56
2019-05-18T17:02:47.703Z,99507.98
2019-05-18T17:05:17.445Z,99506.95
2019-05-18T17:07:46.901Z,99499.52
2019-05-18T17:10:16.617Z,99499.52
2019-05-18T17:12:46.191Z,99499.23
2019-05-18T17:15:16.444Z,99501.27
2019-05-18T17:17:45.922Z,99505.56
2019-05-18T17:20:15.695Z,99511.63
2019-05-18T17:22:45.311Z,99516.97
2019-05-18T17:25:14.933Z,99506.66
2019-05-18T17:27:44.559Z,99510.97
2019-05-18T17:30:16.357Z,99514.02
2019-05-18T17:32:45.971Z,99516.03
2019-05-18T17:35:15.672Z,99519.13
2019-05-18T17:37:45.251Z,99519.20
2019-05-18T17:40:15.570Z,99516.50
2019-05-18T17:42:45.090Z,99523.69
2019-05-18T17:45:14.930Z,99527.02
2019-05-18T17:47:44.455Z,99528.77
2019-05-18T17:50:14.869Z,99529.23
2019-05-18T17:52:44.371Z,99537.45
2019-05-18T17:55:16.360Z,99534.16
2019-05-18T17:57:45.758Z,99532.50
2019-05-18T18:00:16.872Z,99539.02
2019-05-18T18:02:48.288Z,99531.59
2019-05-18T18:05:17.824Z,99536.86
2019-05-18T18:07:47.281Z,99536.95
2019-05-18T18:10:17.039Z,99534.13
2019-05-18T18:12:46.615Z,99528.52
2019-05-18T18:15:16.590Z,99531.54
2019-05-18T18:17:46.087Z,99534.90
2019-05-18T18:20:15.784Z,99541.42
2019-05-18T18:22:45.345Z,99551.91
2019-05-18T18:25:15.043Z,99550.73
2019-05-18T18:27:44.593Z,99553.00
2019-05-18T18:30:15.461Z,99558.13
2019-05-18T18:32:45.006Z,99560.11
2019-05-18T18:35:14.809Z,99558.10
2019-05-18T18:37:44.433Z,99574.11
2019-05-18T18:40:14.498Z,99570.83
2019-05-18T18:42:44.006Z,99569.43
2019-05-18T18:45:14.418Z,99577.06
2019-05-18T18:47:43.894Z,99575.02
2019-05-18T18:50:13.828Z,99583.42
2019-05-18T18:52:43.438Z,99585.05
2019-05-18T18:55:13.169Z,99583.30
2019-05-18T18:57:42.739Z,99580.09
2019-05-18T19:02:41.466Z,99583.50
2019-05-18T19:05:11.886Z,99583.61
2019-05-18T19:08:00.754Z,99587.60
2019-05-18T19:10:30.275Z,99595.63
2019-05-18T19:12:59.733Z,99593.47
2019-05-18T19:15:29.374Z,99594.62
2019-05-18T19:17:58.853Z,99598.41
2019-05-18T19:20:28.367Z,99596.91
2019-05-18T19:22:57.977Z,99603.63
2019-05-18T19:25:27.543Z,99614.92
2019-05-18T19:27:57.156Z,99618.75
2019-05-18T19:30:26.804Z,99617.61
2019-05-18T19:32:56.337Z,99619.99
2019-05-18T19:35:25.852Z,99627.84
2019-05-18T19:37:55.462Z,99627.27
2019-05-18T19:40:25.103Z,99631.68
2019-05-18T19:42:54.674Z,99648.05
2019-05-18T19:45:24.176Z,99648.63
2019-05-18T19:47:53.687Z,99656.82
2019-05-18T19:50:42.527Z,99662.62
2019-05-18T19:53:12.085Z,99658.21
2019-05-18T19:55:41.583Z,99654.00
2019-05-18T19:58:11.045Z,99655.92
2019-05-18T20:00:40.506Z,99667.23
2019-05-18T20:03:10.025Z,99666.73
2019-05-18T20:05:39.644Z,99661.27
2019-05-18T20:08:09.296Z,99662.59
2019-05-18T20:10:38.753Z,99665.26
2019-05-18T20:13:08.258Z,99668.50
2019-05-18T20:15:37.725Z,99665.20
2019-05-18T20:18:07.248Z,99659.48
2019-05-18T20:20:36.848Z,99661.53
2019-05-18T20:23:08.384Z,99668.34
2019-05-18T20:25:37.601Z,99672.75
2019-05-18T20:28:07.117Z,99671.19
2019-05-18T20:30:36.658Z,99677.39
2019-05-18T20:33:06.289Z,99676.22
2019-05-18T20:35:35.767Z,99676.80
2019-05-18T20:38:05.349Z,99691.75
2019-05-18T20:40:34.821Z,99707.44
2019-05-18T20:43:04.320Z,99721.38
2019-05-18T20:45:33.876Z,99719.80
2019-05-18T20:48:03.514Z,99717.82
2019-05-18T20:50:39.058Z,99724.59
2019-05-18T20:53:08.631Z,99721.41
2019-05-18T20:55:38.128Z,99717.42
2019-05-18T20:58:07.700Z,99709.88
2019-05-18T21:00:38.670Z,99698.72
2019-05-18T21:03:08.603Z,99707.86
2019-05-18T21:05:38.142Z,99701.90
2019-05-18T21:08:07.606Z,99699.89
2019-05-18T21:10:37.200Z,99697.91
2019-05-18T21:13:06.726Z,99701.88
2019-05-18T21:15:36.277Z,99695.72
2019-05-18T21:18:05.826Z,99690.56
2019-05-18T21:20:35.311Z,99691.94
2019-05-18T21:23:04.927Z,99689.16
2019-05-18T21:25:34.702Z,99681.60
2019-05-18T21:28:04.199Z,99683.98
2019-05-18T21:30:34.365Z,99674.86
2019-05-18T21:33:03.922Z,99661.33
2019-05-18T21:35:33.461Z,99645.43
2019-05-18T21:38:02.982Z,99642.83
2019-05-18T21:40:32.520Z,99647.19
2019-05-18T21:43:01.995Z,99642.41
2019-05-18T21:45:31.461Z,99647.38
2019-05-18T21:48:01.035Z,99657.30
2019-05-18T21:50:30.551Z,99648.95
2019-05-18T21:53:00.014Z,99635.44
2019-05-18T21:55:29.581Z,99639.81
2019-05-18T21:58:18.454Z,99636.63
2019-05-18T22:00:50.469Z,99631.05
2019-05-18T22:03:20.010Z,99628.08
2019-05-18T22:05:49.564Z,99630.08
2019-05-18T22:08:19.042Z,99621.13
2019-05-18T22:10:48.642Z,99613.57
2019-05-18T22:13:18.184Z,99614.19
2019-05-18T22:15:47.662Z,99612.80
2019-05-18T22:18:24.423Z,99616.96
2019-05-18T22:20:48.490Z,99608.82
2019-05-18T22:23:17.967Z,99608.82
2019-05-18T22:25:47.485Z,99610.21
2019-05-18T22:28:17.016Z,99609.81
2019-05-18T22:30:46.608Z,99610.97
2019-05-18T22:33:16.068Z,99613.16
2019-05-18T22:35:45.565Z,99613.94
2019-05-18T22:38:15.034Z,99622.29
2019-05-18T22:40:44.549Z,99623.66
2019-05-18T22:43:14.032Z,99622.67
2019-05-18T22:45:47.168Z,99625.64
2019-05-18T22:48:16.681Z,99627.23
2019-05-18T22:50:46.152Z,99626.02
2019-05-18T22:53:15.674Z,99619.86
2019-05-18T22:55:45.150Z,99617.87
2019-05-18T22:58:14.661Z,99623.40
2019-05-18T23:00:44.172Z,99623.41
2019-05-18T23:03:13.806Z,99613.45
2019-05-18T23:05:43.423Z,99621.80
2019-05-18T23:08:13.044Z,99617.40
2019-05-18T23:10:42.546Z,99613.03
2019-05-18T23:13:12.047Z,99620.33
2019-05-18T23:15:41.517Z,99613.76
2019-05-18T23:18:11.007Z,99605.00
2019-05-18T23:20:40.479Z,99606.77
2019-05-18T23:23:09.982Z,99606.73
2019-05-18T23:25:39.453Z,99605.34
2019-05-18T23:28:08.961Z,99611.67
2019-05-18T23:30:38.427Z,99606.88
2019-05-18T23:33:07.898Z,99601.52
2019-05-18T23:35:37.459Z,99603.69
2019-05-18T23:38:07.025Z,99604.87
2019-05-18T23:40:36.587Z,99602.88
2019-05-18T23:43:06.307Z,99600.09
2019-05-18T23:45:36.021Z,99592.95
2019-05-18T23:48:05.655Z,99597.70
2019-05-18T23:50:35.216Z,99592.14
2019-05-18T23:53:04.791Z,99591.56
2019-05-18T23:55:53.655Z,99594.75
2019-05-18T23:58:23.215Z,99588.02
